sensor_id;sensor_type;location;lat;lon;timestamp;P1;durP1;ratioP1;P2;durP2;ratioP2
16442;SDS011;8331;51.654;14.376;2022-09-12T00:01:12;6.23;;;5.83;;
16442;SDS011;8331;51.654;14.376;2022-09-12T00:03:41;6.93;;;6.43;;
16442;SDS011;8331;51.654;14.376;2022-09-12T00:06:12;6.37;;;5.97;;
16442;SDS011;8331;51.654;14.376;2022-09-12T00:08:48;6.17;;;5.70;;
16442;SDS011;8331;51.654;14.376;2022-09-12T00:11:14;5.93;;;5.53;;
16442;SDS011;8331;51.654;14.376;2022-09-12T00:13:41;6.87;;;6.27;;
16442;SDS011;8331;51.654;14.376;2022-09-12T00:16:15;6.67;;;6.17;;
16442;SDS011;8331;51.654;14.376;2022-09-12T00:18:43;6.80;;;6.17;;
16442;SDS011;8331;51.654;14.376;2022-09-12T00:21:12;6.20;;;5.80;;
16442;SDS011;8331;51.654;14.376;2022-09-12T00:23:39;6.17;;;5.77;;
16442;SDS011;8331;51.654;14.376;2022-09-12T00:26:06;6.37;;;5.90;;
16442;SDS011;8331;51.654;14.376;2022-09-12T00:28:33;6.60;;;6.00;;
16442;SDS011;8331;51.654;14.376;2022-09-12T00:31:02;7.57;;;6.10;;
16442;SDS011;8331;51.654;14.376;2022-09-12T00:33:33;6.37;;;5.97;;
16442;SDS011;8331;51.654;14.376;2022-09-12T00:36:03;6.43;;;5.97;;
16442;SDS011;8331;51.654;14.376;2022-09-12T00:38:31;6.77;;;6.20;;
16442;SDS011;8331;51.654;14.376;2022-09-12T00:40:58;6.57;;;5.93;;
16442;SDS011;8331;51.654;14.376;2022-09-12T00:49:11;6.50;;;5.90;;
16442;SDS011;8331;51.654;14.376;2022-09-12T00:51:40;6.53;;;5.93;;
16442;SDS011;8331;51.654;14.376;2022-09-12T00:54:11;6.63;;;6.13;;
16442;SDS011;8331;51.654;14.376;2022-09-12T00:56:41;6.93;;;6.37;;
16442;SDS011;8331;51.654;14.376;2022-09-12T00:59:15;6.23;;;5.73;;
16442;SDS011;8331;51.654;14.376;2022-09-12T01:01:43;6.87;;;6.47;;
16442;SDS011;8331;51.654;14.376;2022-09-12T01:04:23;6.63;;;6.13;;
16442;SDS011;8331;51.654;14.376;2022-09-12T01:06:51;6.67;;;6.10;;
16442;SDS011;8331;51.654;14.376;2022-09-12T01:09:19;6.97;;;6.37;;
16442;SDS011;8331;51.654;14.376;2022-09-12T01:11:47;7.37;;;6.87;;
16442;SDS011;8331;51.654;14.376;2022-09-12T01:14:16;7.17;;;6.57;;
16442;SDS011;8331;51.654;14.376;2022-09-12T01:16:42;8.43;;;6.50;;
16442;SDS011;8331;51.654;14.376;2022-09-12T01:22:36;7.60;;;6.90;;
16442;SDS011;8331;51.654;14.376;2022-09-12T01:26:26;6.37;;;5.87;;
16442;SDS011;8331;51.654;14.376;2022-09-12T01:31:36;6.60;;;6.10;;
16442;SDS011;8331;51.654;14.376;2022-09-12T01:34:22;7.43;;;6.60;;
16442;SDS011;8331;51.654;14.376;2022-09-12T01:47:32;6.73;;;6.13;;
16442;SDS011;8331;51.654;14.376;2022-09-12T01:50:12;7.20;;;6.60;;
16442;SDS011;8331;51.654;14.376;2022-09-12T01:52:55;8.53;;;6.43;;
16442;SDS011;8331;51.654;14.376;2022-09-12T01:55:31;6.47;;;5.90;;
16442;SDS011;8331;51.654;14.376;2022-09-12T02:03:38;6.93;;;6.40;;
16442;SDS011;8331;51.654;14.376;2022-09-12T02:06:45;8.33;;;6.50;;
16442;SDS011;8331;51.654;14.376;2022-09-12T02:11:46;7.03;;;6.33;;
16442;SDS011;8331;51.654;14.376;2022-09-12T02:14:18;6.13;;;5.73;;
16442;SDS011;8331;51.654;14.376;2022-09-12T02:16:51;6.40;;;5.80;;
16442;SDS011;8331;51.654;14.376;2022-09-12T02:19:22;7.87;;;5.97;;
16442;SDS011;8331;51.654;14.376;2022-09-12T02:21:51;6.90;;;5.50;;
16442;SDS011;8331;51.654;14.376;2022-09-12T02:24:21;6.57;;;5.87;;
16442;SDS011;8331;51.654;14.376;2022-09-12T02:26:49;6.30;;;5.77;;
16442;SDS011;8331;51.654;14.376;2022-09-12T02:29:20;6.60;;;6.10;;
16442;SDS011;8331;51.654;14.376;2022-09-12T02:31:47;6.00;;;5.40;;
16442;SDS011;8331;51.654;14.376;2022-09-12T02:37:16;6.97;;;5.90;;
16442;SDS011;8331;51.654;14.376;2022-09-12T02:39:46;6.17;;;5.67;;
16442;SDS011;8331;51.654;14.376;2022-09-12T02:42:13;8.10;;;6.33;;
16442;SDS011;8331;51.654;14.376;2022-09-12T02:44:39;6.43;;;5.93;;
16442;SDS011;8331;51.654;14.376;2022-09-12T02:47:13;6.77;;;6.17;;
16442;SDS011;8331;51.654;14.376;2022-09-12T02:49:42;7.50;;;6.50;;
16442;SDS011;8331;51.654;14.376;2022-09-12T02:52:09;7.00;;;6.47;;
16442;SDS011;8331;51.654;14.376;2022-09-12T02:54:35;5.37;;;5.07;;
16442;SDS011;8331;51.654;14.376;2022-09-12T02:57:05;6.50;;;5.90;;
16442;SDS011;8331;51.654;14.376;2022-09-12T02:59:47;5.70;;;5.30;;
16442;SDS011;8331;51.654;14.376;2022-09-12T03:02:21;6.90;;;6.37;;
16442;SDS011;8331;51.654;14.376;2022-09-12T03:05:06;6.57;;;5.97;;
16442;SDS011;8331;51.654;14.376;2022-09-12T03:13:00;6.87;;;6.27;;
16442;SDS011;8331;51.654;14.376;2022-09-12T03:24:52;7.43;;;6.83;;
16442;SDS011;8331;51.654;14.376;2022-09-12T03:27:28;7.50;;;6.90;;
16442;SDS011;8331;51.654;14.376;2022-09-12T03:29:57;10.60;;;6.87;;
16442;SDS011;8331;51.654;14.376;2022-09-12T03:32:45;8.33;;;6.80;;
16442;SDS011;8331;51.654;14.376;2022-09-12T03:35:16;11.57;;;6.67;;
16442;SDS011;8331;51.654;14.376;2022-09-12T03:37:48;7.60;;;7.00;;
16442;SDS011;8331;51.654;14.376;2022-09-12T03:40:15;7.17;;;6.47;;
16442;SDS011;8331;51.654;14.376;2022-09-12T03:42:42;7.03;;;6.43;;
16442;SDS011;8331;51.654;14.376;2022-09-12T03:45:09;7.60;;;6.90;;
16442;SDS011;8331;51.654;14.376;2022-09-12T03:47:37;7.90;;;7.10;;
16442;SDS011;8331;51.654;14.376;2022-09-12T03:50:04;8.40;;;7.70;;
16442;SDS011;8331;51.654;14.376;2022-09-12T03:52:31;7.90;;;7.20;;
16442;SDS011;8331;51.654;14.376;2022-09-12T03:54:58;7.87;;;7.23;;
16442;SDS011;8331;51.654;14.376;2022-09-12T03:57:25;8.33;;;7.73;;
16442;SDS011;8331;51.654;14.376;2022-09-12T03:59:51;9.40;;;7.07;;
16442;SDS011;8331;51.654;14.376;2022-09-12T04:02:18;7.77;;;7.00;;
16442;SDS011;8331;51.654;14.376;2022-09-12T04:04:45;7.17;;;6.63;;
16442;SDS011;8331;51.654;14.376;2022-09-12T04:07:14;8.10;;;7.50;;
16442;SDS011;8331;51.654;14.376;2022-09-12T04:09:41;7.00;;;6.53;;
16442;SDS011;8331;51.654;14.376;2022-09-12T04:12:08;7.47;;;6.77;;
16442;SDS011;8331;51.654;14.376;2022-09-12T04:14:34;7.60;;;7.00;;
16442;SDS011;8331;51.654;14.376;2022-09-12T04:17:01;7.60;;;6.90;;
16442;SDS011;8331;51.654;14.376;2022-09-12T04:19:27;6.87;;;6.27;;
16442;SDS011;8331;51.654;14.376;2022-09-12T04:21:54;9.13;;;8.27;;
16442;SDS011;8331;51.654;14.376;2022-09-12T04:24:21;9.17;;;8.40;;
16442;SDS011;8331;51.654;14.376;2022-09-12T04:26:47;8.67;;;8.00;;
16442;SDS011;8331;51.654;14.376;2022-09-12T04:29:14;8.60;;;7.80;;
16442;SDS011;8331;51.654;14.376;2022-09-12T04:31:41;9.20;;;8.30;;
16442;SDS011;8331;51.654;14.376;2022-09-12T04:34:07;8.77;;;8.17;;
16442;SDS011;8331;51.654;14.376;2022-09-12T04:36:35;10.40;;;9.33;;
16442;SDS011;8331;51.654;14.376;2022-09-12T04:39:02;11.00;;;10.10;;
16442;SDS011;8331;51.654;14.376;2022-09-12T04:41:31;9.40;;;8.60;;
16442;SDS011;8331;51.654;14.376;2022-09-12T04:43:59;9.23;;;8.57;;
16442;SDS011;8331;51.654;14.376;2022-09-12T04:46:29;10.93;;;10.03;;
16442;SDS011;8331;51.654;14.376;2022-09-12T04:48:57;10.10;;;9.20;;
16442;SDS011;8331;51.654;14.376;2022-09-12T04:53:57;10.37;;;9.50;;
16442;SDS011;8331;51.654;14.376;2022-09-12T04:56:32;11.20;;;10.30;;
16442;SDS011;8331;51.654;14.376;2022-09-12T04:59:01;11.03;;;10.17;;
16442;SDS011;8331;51.654;14.376;2022-09-12T05:01:28;9.93;;;9.07;;
16442;SDS011;8331;51.654;14.376;2022-09-12T05:03:56;10.90;;;10.10;;
16442;SDS011;8331;51.654;14.376;2022-09-12T05:06:25;10.10;;;9.30;;
16442;SDS011;8331;51.654;14.376;2022-09-12T05:08:53;11.83;;;10.70;;
16442;SDS011;8331;51.654;14.376;2022-09-12T05:11:22;11.10;;;10.00;;
16442;SDS011;8331;51.654;14.376;2022-09-12T05:14:06;12.63;;;11.53;;
16442;SDS011;8331;51.654;14.376;2022-09-12T05:16:33;11.87;;;10.67;;
16442;SDS011;8331;51.654;14.376;2022-09-12T05:19:00;11.47;;;10.47;;
16442;SDS011;8331;51.654;14.376;2022-09-12T05:21:26;13.83;;;12.13;;
16442;SDS011;8331;51.654;14.376;2022-09-12T05:23:53;13.63;;;11.50;;
16442;SDS011;8331;51.654;14.376;2022-09-12T05:26:21;13.73;;;12.27;;
16442;SDS011;8331;51.654;14.376;2022-09-12T05:28:49;13.67;;;12.27;;
16442;SDS011;8331;51.654;14.376;2022-09-12T05:31:23;15.23;;;13.27;;
16442;SDS011;8331;51.654;14.376;2022-09-12T05:33:52;17.13;;;14.10;;
16442;SDS011;8331;51.654;14.376;2022-09-12T05:36:21;14.90;;;13.40;;
16442;SDS011;8331;51.654;14.376;2022-09-12T05:38:49;15.30;;;12.83;;
16442;SDS011;8331;51.654;14.376;2022-09-12T05:41:17;14.07;;;12.70;;
16442;SDS011;8331;51.654;14.376;2022-09-12T05:43:57;14.80;;;13.37;;
16442;SDS011;8331;51.654;14.376;2022-09-12T05:46:26;14.90;;;13.50;;
16442;SDS011;8331;51.654;14.376;2022-09-12T05:48:54;14.53;;;13.03;;
16442;SDS011;8331;51.654;14.376;2022-09-12T05:51:23;17.07;;;15.33;;
16442;SDS011;8331;51.654;14.376;2022-09-12T05:53:53;15.17;;;13.67;;
16442;SDS011;8331;51.654;14.376;2022-09-12T05:56:25;14.90;;;13.57;;
16442;SDS011;8331;51.654;14.376;2022-09-12T05:58:54;14.83;;;13.33;;
16442;SDS011;8331;51.654;14.376;2022-09-12T06:01:29;17.50;;;14.90;;
16442;SDS011;8331;51.654;14.376;2022-09-12T06:03:57;17.27;;;14.37;;
16442;SDS011;8331;51.654;14.376;2022-09-12T06:06:26;14.83;;;13.27;;
16442;SDS011;8331;51.654;14.376;2022-09-12T06:08:58;16.37;;;14.77;;
16442;SDS011;8331;51.654;14.376;2022-09-12T06:11:26;16.87;;;15.03;;
16442;SDS011;8331;51.654;14.376;2022-09-12T06:13:55;16.07;;;14.50;;
16442;SDS011;8331;51.654;14.376;2022-09-12T06:16:23;15.97;;;14.37;;
16442;SDS011;8331;51.654;14.376;2022-09-12T06:18:57;16.80;;;14.77;;
16442;SDS011;8331;51.654;14.376;2022-09-12T06:21:28;16.17;;;14.47;;
16442;SDS011;8331;51.654;14.376;2022-09-12T06:23:56;16.17;;;14.57;;
16442;SDS011;8331;51.654;14.376;2022-09-12T06:26:24;17.07;;;15.23;;
16442;SDS011;8331;51.654;14.376;2022-09-12T06:28:52;17.20;;;15.37;;
16442;SDS011;8331;51.654;14.376;2022-09-12T06:31:20;16.07;;;14.47;;
16442;SDS011;8331;51.654;14.376;2022-09-12T06:33:49;16.13;;;14.53;;
16442;SDS011;8331;51.654;14.376;2022-09-12T06:36:21;17.87;;;14.67;;
16442;SDS011;8331;51.654;14.376;2022-09-12T06:38:53;16.93;;;15.13;;
16442;SDS011;8331;51.654;14.376;2022-09-12T06:41:22;15.87;;;14.30;;
16442;SDS011;8331;51.654;14.376;2022-09-12T06:43:49;17.80;;;15.87;;
16442;SDS011;8331;51.654;14.376;2022-09-12T06:46:16;17.60;;;15.90;;
16442;SDS011;8331;51.654;14.376;2022-09-12T06:48:44;15.77;;;14.27;;
16442;SDS011;8331;51.654;14.376;2022-09-12T06:51:12;16.93;;;15.30;;
16442;SDS011;8331;51.654;14.376;2022-09-12T06:53:40;16.83;;;15.13;;
16442;SDS011;8331;51.654;14.376;2022-09-12T06:56:11;17.50;;;15.80;;
16442;SDS011;8331;51.654;14.376;2022-09-12T06:58:42;17.43;;;15.67;;
16442;SDS011;8331;51.654;14.376;2022-09-12T07:01:10;16.57;;;15.07;;
16442;SDS011;8331;51.654;14.376;2022-09-12T07:03:37;16.23;;;14.60;;
16442;SDS011;8331;51.654;14.376;2022-09-12T07:06:11;17.77;;;16.07;;
16442;SDS011;8331;51.654;14.376;2022-09-12T07:08:40;16.50;;;14.90;;
16442;SDS011;8331;51.654;14.376;2022-09-12T07:13:44;18.20;;;16.50;;
16442;SDS011;8331;51.654;14.376;2022-09-12T07:16:12;16.80;;;15.10;;
16442;SDS011;8331;51.654;14.376;2022-09-12T07:18:48;16.23;;;14.73;;
16442;SDS011;8331;51.654;14.376;2022-09-12T07:21:16;19.13;;;17.27;;
16442;SDS011;8331;51.654;14.376;2022-09-12T07:23:42;17.30;;;15.60;;
16442;SDS011;8331;51.654;14.376;2022-09-12T07:26:11;17.70;;;15.67;;
16442;SDS011;8331;51.654;14.376;2022-09-12T07:28:38;16.03;;;14.57;;
16442;SDS011;8331;51.654;14.376;2022-09-12T07:31:06;16.67;;;15.03;;
16442;SDS011;8331;51.654;14.376;2022-09-12T07:33:37;14.93;;;13.43;;
16442;SDS011;8331;51.654;14.376;2022-09-12T07:36:05;15.27;;;13.77;;
16442;SDS011;8331;51.654;14.376;2022-09-12T07:38:34;14.67;;;13.17;;
16442;SDS011;8331;51.654;14.376;2022-09-12T07:41:00;12.27;;;11.37;;
16442;SDS011;8331;51.654;14.376;2022-09-12T07:43:27;14.77;;;13.47;;
16442;SDS011;8331;51.654;14.376;2022-09-12T07:45:54;11.70;;;10.70;;
16442;SDS011;8331;51.654;14.376;2022-09-12T07:48:21;13.07;;;11.97;;
16442;SDS011;8331;51.654;14.376;2022-09-12T07:50:56;13.77;;;12.60;;
16442;SDS011;8331;51.654;14.376;2022-09-12T07:53:25;12.13;;;10.93;;
16442;SDS011;8331;51.654;14.376;2022-09-12T07:56:02;10.87;;;10.03;;
16442;SDS011;8331;51.654;14.376;2022-09-12T07:58:30;11.60;;;10.70;;
16442;SDS011;8331;51.654;14.376;2022-09-12T08:01:05;11.33;;;10.43;;
16442;SDS011;8331;51.654;14.376;2022-09-12T08:03:34;10.60;;;9.80;;
16442;SDS011;8331;51.654;14.376;2022-09-12T08:06:02;11.90;;;10.87;;
16442;SDS011;8331;51.654;14.376;2022-09-12T08:08:30;10.13;;;9.23;;
16442;SDS011;8331;51.654;14.376;2022-09-12T08:10:59;9.37;;;8.67;;
16442;SDS011;8331;51.654;14.376;2022-09-12T08:13:27;9.83;;;9.20;;
16442;SDS011;8331;51.654;14.376;2022-09-12T08:15:58;8.73;;;8.10;;
16442;SDS011;8331;51.654;14.376;2022-09-12T08:18:26;8.17;;;7.43;;
16442;SDS011;8331;51.654;14.376;2022-09-12T08:20:59;8.13;;;7.53;;
16442;SDS011;8331;51.654;14.376;2022-09-12T08:23:30;7.90;;;7.40;;
16442;SDS011;8331;51.654;14.376;2022-09-12T08:25:58;6.10;;;5.70;;
16442;SDS011;8331;51.654;14.376;2022-09-12T08:28:31;4.50;;;4.20;;
16442;SDS011;8331;51.654;14.376;2022-09-12T08:31:09;4.73;;;4.43;;
16442;SDS011;8331;51.654;14.376;2022-09-12T08:33:37;4.40;;;3.90;;
16442;SDS011;8331;51.654;14.376;2022-09-12T08:36:09;4.60;;;4.27;;
16442;SDS011;8331;51.654;14.376;2022-09-12T08:38:38;4.60;;;4.30;;
16442;SDS011;8331;51.654;14.376;2022-09-12T08:41:10;4.10;;;3.90;;
16442;SDS011;8331;51.654;14.376;2022-09-12T08:46:31;6.50;;;4.90;;
16442;SDS011;8331;51.654;14.376;2022-09-12T08:49:24;13.27;;;5.10;;
16442;SDS011;8331;51.654;14.376;2022-09-12T08:51:54;5.43;;;5.03;;
16442;SDS011;8331;51.654;14.376;2022-09-12T08:54:26;5.00;;;4.70;;
16442;SDS011;8331;51.654;14.376;2022-09-12T08:56:55;5.57;;;5.27;;
16442;SDS011;8331;51.654;14.376;2022-09-12T08:59:25;5.63;;;5.23;;
16442;SDS011;8331;51.654;14.376;2022-09-12T09:01:52;5.77;;;5.37;;
16442;SDS011;8331;51.654;14.376;2022-09-12T09:04:26;5.87;;;5.30;;
16442;SDS011;8331;51.654;14.376;2022-09-12T09:07:13;6.60;;;6.20;;
16442;SDS011;8331;51.654;14.376;2022-09-12T09:18:57;7.03;;;6.43;;
16442;SDS011;8331;51.654;14.376;2022-09-12T09:21:29;7.67;;;7.07;;
16442;SDS011;8331;51.654;14.376;2022-09-12T09:24:07;7.83;;;7.23;;
16442;SDS011;8331;51.654;14.376;2022-09-12T09:26:47;7.28;;;6.78;;
16442;SDS011;8331;51.654;14.376;2022-09-12T09:29:18;8.57;;;7.97;;
16442;SDS011;8331;51.654;14.376;2022-09-12T09:31:47;8.30;;;7.67;;
16442;SDS011;8331;51.654;14.376;2022-09-12T09:34:19;8.53;;;7.93;;
16442;SDS011;8331;51.654;14.376;2022-09-12T09:36:48;8.40;;;7.80;;
16442;SDS011;8331;51.654;14.376;2022-09-12T09:39:25;8.53;;;7.87;;
16442;SDS011;8331;51.654;14.376;2022-09-12T09:44:45;7.67;;;7.17;;
16442;SDS011;8331;51.654;14.376;2022-09-12T09:47:14;7.33;;;6.93;;
16442;SDS011;8331;51.654;14.376;2022-09-12T09:49:40;6.77;;;6.27;;
16442;SDS011;8331;51.654;14.376;2022-09-12T09:52:07;7.33;;;6.83;;
16442;SDS011;8331;51.654;14.376;2022-09-12T10:03:03;6.10;;;5.70;;
16442;SDS011;8331;51.654;14.376;2022-09-12T10:05:47;5.57;;;5.27;;
16442;SDS011;8331;51.654;14.376;2022-09-12T10:08:22;5.50;;;5.10;;
16442;SDS011;8331;51.654;14.376;2022-09-12T10:16:25;5.20;;;4.80;;
16442;SDS011;8331;51.654;14.376;2022-09-12T10:19:00;4.13;;;3.93;;
16442;SDS011;8331;51.654;14.376;2022-09-12T10:21:35;4.47;;;4.10;;
16442;SDS011;8331;51.654;14.376;2022-09-12T10:24:21;4.67;;;4.37;;
16442;SDS011;8331;51.654;14.376;2022-09-12T10:26:52;4.17;;;3.97;;
16442;SDS011;8331;51.654;14.376;2022-09-12T10:31:59;3.43;;;3.23;;
16442;SDS011;8331;51.654;14.376;2022-09-12T10:34:34;4.13;;;3.90;;
16442;SDS011;8331;51.654;14.376;2022-09-12T10:37:04;4.17;;;3.77;;
16442;SDS011;8331;51.654;14.376;2022-09-12T10:39:32;3.73;;;3.40;;
16442;SDS011;8331;51.654;14.376;2022-09-12T10:42:01;4.03;;;3.73;;
16442;SDS011;8331;51.654;14.376;2022-09-12T10:44:29;2.93;;;2.60;;
16442;SDS011;8331;51.654;14.376;2022-09-12T10:47:17;3.00;;;2.80;;
16442;SDS011;8331;51.654;14.376;2022-09-12T10:49:46;2.10;;;2.00;;
16442;SDS011;8331;51.654;14.376;2022-09-12T10:52:22;2.40;;;2.23;;
16442;SDS011;8331;51.654;14.376;2022-09-12T10:54:52;2.37;;;2.23;;
16442;SDS011;8331;51.654;14.376;2022-09-12T11:02:57;1.90;;;1.80;;
16442;SDS011;8331;51.654;14.376;2022-09-12T11:05:50;2.30;;;2.00;;
16442;SDS011;8331;51.654;14.376;2022-09-12T11:13:53;2.23;;;2.13;;
16442;SDS011;8331;51.654;14.376;2022-09-12T11:17:41;2.03;;;1.93;;
16442;SDS011;8331;51.654;14.376;2022-09-12T11:19:54;2.50;;;2.00;;
16442;SDS011;8331;51.654;14.376;2022-09-12T11:23:04;2.20;;;2.10;;
16442;SDS011;8331;51.654;14.376;2022-09-12T11:34:07;1.53;;;1.43;;
16442;SDS011;8331;51.654;14.376;2022-09-12T11:36:44;1.37;;;1.33;;
16442;SDS011;8331;51.654;14.376;2022-09-12T11:39:36;2.10;;;1.00;;
16442;SDS011;8331;51.654;14.376;2022-09-12T11:42:08;1.10;;;1.10;;
16442;SDS011;8331;51.654;14.376;2022-09-12T11:44:39;1.00;;;1.00;;
16442;SDS011;8331;51.654;14.376;2022-09-12T11:47:12;1.00;;;1.00;;
16442;SDS011;8331;51.654;14.376;2022-09-12T11:49:44;1.30;;;1.30;;
16442;SDS011;8331;51.654;14.376;2022-09-12T11:52:23;1.23;;;1.23;;
16442;SDS011;8331;51.654;14.376;2022-09-12T11:57:56;1.33;;;1.33;;
16442;SDS011;8331;51.654;14.376;2022-09-12T12:03:02;1.67;;;1.40;;
16442;SDS011;8331;51.654;14.376;2022-09-12T12:08:13;1.30;;;1.30;;
16442;SDS011;8331;51.654;14.376;2022-09-12T12:10:44;1.20;;;1.20;;
16442;SDS011;8331;51.654;14.376;2022-09-12T12:13:20;1.40;;;1.40;;
16442;SDS011;8331;51.654;14.376;2022-09-12T12:18:33;1.30;;;1.30;;
16442;SDS011;8331;51.654;14.376;2022-09-12T12:21:18;1.13;;;1.13;;
16442;SDS011;8331;51.654;14.376;2022-09-12T12:32:30;1.10;;;1.10;;
16442;SDS011;8331;51.654;14.376;2022-09-12T12:47:44;1.20;;;1.20;;
16442;SDS011;8331;51.654;14.376;2022-09-12T12:52:46;1.67;;;1.30;;
16442;SDS011;8331;51.654;14.376;2022-09-12T12:55:23;1.40;;;1.40;;
16442;SDS011;8331;51.654;14.376;2022-09-12T12:57:52;1.60;;;1.50;;
16442;SDS011;8331;51.654;14.376;2022-09-12T13:02:51;1.30;;;1.20;;
16442;SDS011;8331;51.654;14.376;2022-09-12T13:05:21;1.30;;;1.20;;
16442;SDS011;8331;51.654;14.376;2022-09-12T13:07:53;1.40;;;1.20;;
16442;SDS011;8331;51.654;14.376;2022-09-12T13:10:22;1.30;;;1.30;;
16442;SDS011;8331;51.654;14.376;2022-09-12T13:12:51;1.93;;;1.27;;
16442;SDS011;8331;51.654;14.376;2022-09-12T13:18:04;1.43;;;1.43;;
16442;SDS011;8331;51.654;14.376;2022-09-12T13:20:33;1.47;;;1.30;;
16442;SDS011;8331;51.654;14.376;2022-09-12T13:23:03;1.50;;;1.40;;
16442;SDS011;8331;51.654;14.376;2022-09-12T13:25:31;1.80;;;1.70;;
16442;SDS011;8331;51.654;14.376;2022-09-12T13:28:04;1.30;;;1.30;;
16442;SDS011;8331;51.654;14.376;2022-09-12T13:30:41;1.13;;;1.13;;
16442;SDS011;8331;51.654;14.376;2022-09-12T13:33:19;1.33;;;1.30;;
16442;SDS011;8331;51.654;14.376;2022-09-12T13:36:05;1.40;;;1.30;;
16442;SDS011;8331;51.654;14.376;2022-09-12T13:38:40;1.27;;;1.27;;
16442;SDS011;8331;51.654;14.376;2022-09-12T13:44:23;1.50;;;1.40;;
16442;SDS011;8331;51.654;14.376;2022-09-12T13:46:49;1.20;;;1.20;;
16442;SDS011;8331;51.654;14.376;2022-09-12T13:49:21;1.50;;;1.50;;
16442;SDS011;8331;51.654;14.376;2022-09-12T13:51:59;1.30;;;1.30;;
16442;SDS011;8331;51.654;14.376;2022-09-12T13:54:32;1.60;;;1.40;;
16442;SDS011;8331;51.654;14.376;2022-09-12T13:56:59;1.43;;;1.43;;
16442;SDS011;8331;51.654;14.376;2022-09-12T13:59:27;1.67;;;1.57;;
16442;SDS011;8331;51.654;14.376;2022-09-12T14:01:53;1.17;;;1.17;;
16442;SDS011;8331;51.654;14.376;2022-09-12T14:04:21;1.40;;;1.30;;
16442;SDS011;8331;51.654;14.376;2022-09-12T14:07:16;1.50;;;1.40;;
16442;SDS011;8331;51.654;14.376;2022-09-12T14:09:51;1.30;;;1.30;;
16442;SDS011;8331;51.654;14.376;2022-09-12T14:12:24;1.37;;;1.37;;
16442;SDS011;8331;51.654;14.376;2022-09-12T14:14:52;1.20;;;1.20;;
16442;SDS011;8331;51.654;14.376;2022-09-12T14:17:32;1.40;;;1.30;;
16442;SDS011;8331;51.654;14.376;2022-09-12T14:20:04;1.63;;;1.53;;
16442;SDS011;8331;51.654;14.376;2022-09-12T14:22:32;1.37;;;1.37;;
16442;SDS011;8331;51.654;14.376;2022-09-12T14:25:00;1.93;;;1.30;;
16442;SDS011;8331;51.654;14.376;2022-09-12T14:27:28;1.50;;;1.33;;
16442;SDS011;8331;51.654;14.376;2022-09-12T14:30:03;1.33;;;1.33;;
16442;SDS011;8331;51.654;14.376;2022-09-12T14:32:34;16.97;;;14.43;;
16442;SDS011;8331;51.654;14.376;2022-09-12T14:37:40;2.23;;;2.13;;
16442;SDS011;8331;51.654;14.376;2022-09-12T14:40:14;1.87;;;1.77;;
16442;SDS011;8331;51.654;14.376;2022-09-12T14:42:43;2.43;;;1.50;;
16442;SDS011;8331;51.654;14.376;2022-09-12T14:45:14;2.20;;;2.10;;
16442;SDS011;8331;51.654;14.376;2022-09-12T14:47:54;2.07;;;1.97;;
16442;SDS011;8331;51.654;14.376;2022-09-12T14:50:24;1.83;;;1.73;;
16442;SDS011;8331;51.654;14.376;2022-09-12T14:53:03;1.70;;;1.60;;
16442;SDS011;8331;51.654;14.376;2022-09-12T14:55:41;1.53;;;1.53;;
16442;SDS011;8331;51.654;14.376;2022-09-12T15:00:53;1.87;;;1.43;;
16442;SDS011;8331;51.654;14.376;2022-09-12T15:03:24;1.70;;;1.60;;
16442;SDS011;8331;51.654;14.376;2022-09-12T15:05:52;1.43;;;1.43;;
16442;SDS011;8331;51.654;14.376;2022-09-12T15:08:18;1.50;;;1.40;;
16442;SDS011;8331;51.654;14.376;2022-09-12T15:10:45;1.30;;;1.30;;
16442;SDS011;8331;51.654;14.376;2022-09-12T15:13:19;1.13;;;1.13;;
16442;SDS011;8331;51.654;14.376;2022-09-12T15:15:54;1.33;;;1.33;;
16442;SDS011;8331;51.654;14.376;2022-09-12T15:18:23;1.80;;;1.30;;
16442;SDS011;8331;51.654;14.376;2022-09-12T15:20:52;1.57;;;1.47;;
16442;SDS011;8331;51.654;14.376;2022-09-12T15:26:14;1.73;;;1.50;;
16442;SDS011;8331;51.654;14.376;2022-09-12T15:28:43;1.60;;;1.50;;
16442;SDS011;8331;51.654;14.376;2022-09-12T15:31:23;1.87;;;1.30;;
16442;SDS011;8331;51.654;14.376;2022-09-12T15:33:55;2.73;;;1.40;;
16442;SDS011;8331;51.654;14.376;2022-09-12T15:36:23;1.53;;;1.37;;
16442;SDS011;8331;51.654;14.376;2022-09-12T15:38:50;1.50;;;1.40;;
16442;SDS011;8331;51.654;14.376;2022-09-12T15:44:11;1.50;;;1.40;;
16442;SDS011;8331;51.654;14.376;2022-09-12T15:46:38;1.40;;;1.40;;
16442;SDS011;8331;51.654;14.376;2022-09-12T15:49:05;1.37;;;1.30;;
16442;SDS011;8331;51.654;14.376;2022-09-12T15:51:32;2.73;;;1.33;;
16442;SDS011;8331;51.654;14.376;2022-09-12T15:53:59;1.60;;;1.50;;
16442;SDS011;8331;51.654;14.376;2022-09-12T15:56:28;1.57;;;1.50;;
16442;SDS011;8331;51.654;14.376;2022-09-12T15:58:54;1.63;;;1.53;;
16442;SDS011;8331;51.654;14.376;2022-09-12T16:01:26;1.60;;;1.50;;
16442;SDS011;8331;51.654;14.376;2022-09-12T16:03:53;2.80;;;1.60;;
16442;SDS011;8331;51.654;14.376;2022-09-12T16:06:20;3.20;;;1.90;;
16442;SDS011;8331;51.654;14.376;2022-09-12T16:08:47;1.53;;;1.47;;
16442;SDS011;8331;51.654;14.376;2022-09-12T16:11:18;1.60;;;1.60;;
16442;SDS011;8331;51.654;14.376;2022-09-12T16:13:47;1.70;;;1.60;;
16442;SDS011;8331;51.654;14.376;2022-09-12T16:16:14;1.40;;;1.40;;
16442;SDS011;8331;51.654;14.376;2022-09-12T16:18:41;1.50;;;1.40;;
16442;SDS011;8331;51.654;14.376;2022-09-12T16:21:08;1.97;;;1.87;;
16442;SDS011;8331;51.654;14.376;2022-09-12T16:23:43;2.40;;;1.77;;
16442;SDS011;8331;51.654;14.376;2022-09-12T16:26:12;1.50;;;1.50;;
16442;SDS011;8331;51.654;14.376;2022-09-12T16:28:39;1.60;;;1.50;;
16442;SDS011;8331;51.654;14.376;2022-09-12T16:31:06;2.30;;;1.63;;
16442;SDS011;8331;51.654;14.376;2022-09-12T16:33:35;4.47;;;1.60;;
16442;SDS011;8331;51.654;14.376;2022-09-12T16:36:06;2.53;;;1.60;;
16442;SDS011;8331;51.654;14.376;2022-09-12T16:38:39;1.43;;;1.43;;
16442;SDS011;8331;51.654;14.376;2022-09-12T16:41:10;1.77;;;1.67;;
16442;SDS011;8331;51.654;14.376;2022-09-12T16:43:38;1.50;;;1.50;;
16442;SDS011;8331;51.654;14.376;2022-09-12T16:46:06;1.60;;;1.50;;
16442;SDS011;8331;51.654;14.376;2022-09-12T16:48:35;1.60;;;1.50;;
16442;SDS011;8331;51.654;14.376;2022-09-12T16:51:03;1.67;;;1.57;;
16442;SDS011;8331;51.654;14.376;2022-09-12T16:53:32;2.93;;;1.73;;
16442;SDS011;8331;51.654;14.376;2022-09-12T16:56:00;1.67;;;1.67;;
16442;SDS011;8331;51.654;14.376;2022-09-12T16:58:26;2.07;;;1.80;;
16442;SDS011;8331;51.654;14.376;2022-09-12T17:01:04;2.10;;;2.00;;
16442;SDS011;8331;51.654;14.376;2022-09-12T17:03:32;2.40;;;2.20;;
16442;SDS011;8331;51.654;14.376;2022-09-12T17:05:59;2.27;;;2.17;;
16442;SDS011;8331;51.654;14.376;2022-09-12T17:08:27;2.50;;;2.30;;
16442;SDS011;8331;51.654;14.376;2022-09-12T17:11:01;2.60;;;2.40;;
16442;SDS011;8331;51.654;14.376;2022-09-12T17:13:28;2.33;;;2.23;;
16442;SDS011;8331;51.654;14.376;2022-09-12T17:16:15;2.90;;;2.70;;
16442;SDS011;8331;51.654;14.376;2022-09-12T17:18:43;2.60;;;2.40;;
16442;SDS011;8331;51.654;14.376;2022-09-12T17:21:10;2.73;;;2.57;;
16442;SDS011;8331;51.654;14.376;2022-09-12T17:23:37;2.40;;;2.30;;
16442;SDS011;8331;51.654;14.376;2022-09-12T17:26:04;2.60;;;2.50;;
16442;SDS011;8331;51.654;14.376;2022-09-12T17:28:32;2.27;;;2.17;;
16442;SDS011;8331;51.654;14.376;2022-09-12T17:31:00;3.83;;;1.97;;
16442;SDS011;8331;51.654;14.376;2022-09-12T17:33:28;2.30;;;2.10;;
16442;SDS011;8331;51.654;14.376;2022-09-12T17:36:04;2.20;;;1.90;;
16442;SDS011;8331;51.654;14.376;2022-09-12T17:38:34;2.23;;;2.13;;
16442;SDS011;8331;51.654;14.376;2022-09-12T17:41:20;1.87;;;1.77;;
16442;SDS011;8331;51.654;14.376;2022-09-12T17:43:51;2.17;;;2.07;;